LNR1473 OMDB-DTTA
Flight info
| Callsign | LNR1473 |
|---|---|
| Flight time | N/A |
| Altitude | 34000 |
| Route | ANVIX R401 GIDIS G783 RIGIL/N0473F360 M628 PEKEM/N0467F280 Q332 MEDPO Y511 ITRUX/N0473F360 Y511 PMA Z712 PEGUR/N0471F380 Z712 WEJ L677 CVO L617 NABSI M872 METRU UP868 ARLOS/N0458F400 DCT DIRKA DCT TOVMA DCT DINUX DCT SONAK R781 DIDON |
| Aircraft | B738/M-SDE2E3FGHIRWXY/LB1 |
Departure
| Time | N/A |
|---|---|
| Airport | Dubai International Airport (OMDB) |
Arrival
| Time | 2026-05-06 17:22 |
|---|---|
| Airport | Tunis Carthage International Airport (DTTA) |
| Time | Latitude | Longitude | Altitude | Speed | Heading |
|---|---|---|---|---|---|
| 2026-05-06 15:38 | 34.50553 | 23.42376 | 40117 ft | 422 kts | 289° |
| 2026-05-06 15:38 | 34.51491 | 23.39074 | 40119 ft | 422 kts | 289° |
| 2026-05-06 15:39 | 34.53399 | 23.32342 | 40116 ft | 422 kts | 289° |
| 2026-05-06 15:39 | 34.55301 | 23.25613 | 40117 ft | 422 kts | 289° |
| 2026-05-06 15:40 | 34.57197 | 23.18891 | 40117 ft | 421 kts | 289° |
| 2026-05-06 15:40 | 34.59074 | 23.12219 | 40117 ft | 421 kts | 289° |
| 2026-05-06 15:41 | 34.60962 | 23.05497 | 40122 ft | 421 kts | 288° |
| 2026-05-06 15:41 | 34.62842 | 22.98761 | 40116 ft | 421 kts | 288° |
| 2026-05-06 15:42 | 34.64603 | 22.91991 | 40117 ft | 420 kts | 287° |
| 2026-05-06 15:42 | 34.66317 | 22.85207 | 40117 ft | 420 kts | 287° |
| 2026-05-06 15:43 | 34.68035 | 22.78423 | 40117 ft | 420 kts | 287° |
| 2026-05-06 15:43 | 34.69755 | 22.71651 | 40117 ft | 419 kts | 287° |
| 2026-05-06 15:44 | 34.71475 | 22.64880 | 40117 ft | 419 kts | 287° |
| 2026-05-06 15:44 | 34.73187 | 22.58123 | 40116 ft | 419 kts | 287° |
| 2026-05-06 15:45 | 34.74896 | 22.51363 | 40117 ft | 418 kts | 287° |
| 2026-05-06 15:45 | 34.76583 | 22.44676 | 40114 ft | 418 kts | 287° |
| 2026-05-06 15:46 | 34.78281 | 22.37922 | 40118 ft | 418 kts | 287° |
| 2026-05-06 15:46 | 34.79965 | 22.31210 | 40120 ft | 418 kts | 287° |
| 2026-05-06 15:47 | 34.81647 | 22.24489 | 40116 ft | 417 kts | 287° |
| 2026-05-06 15:47 | 34.83299 | 22.17865 | 40115 ft | 417 kts | 287° |
| 2026-05-06 15:48 | 34.84981 | 22.11109 | 40119 ft | 417 kts | 287° |
| 2026-05-06 15:48 | 34.86659 | 22.04349 | 40115 ft | 417 kts | 287° |
| 2026-05-06 15:49 | 34.88332 | 21.97592 | 40116 ft | 417 kts | 287° |
| 2026-05-06 15:49 | 34.90001 | 21.90833 | 40116 ft | 417 kts | 287° |
| 2026-05-06 15:50 | 34.91667 | 21.84066 | 40113 ft | 416 kts | 287° |
| 2026-05-06 15:50 | 34.93328 | 21.77306 | 40113 ft | 416 kts | 287° |
| 2026-05-06 15:51 | 34.94972 | 21.70596 | 40112 ft | 416 kts | 287° |
| 2026-05-06 15:51 | 34.96621 | 21.63844 | 40111 ft | 415 kts | 287° |
| 2026-05-06 15:52 | 34.98266 | 21.57094 | 40112 ft | 415 kts | 287° |
| 2026-05-06 15:52 | 34.99907 | 21.50340 | 40111 ft | 415 kts | 287° |
| 2026-05-06 15:53 | 35.01540 | 21.43604 | 40114 ft | 415 kts | 287° |
| 2026-05-06 15:53 | 35.03167 | 21.36875 | 40114 ft | 415 kts | 287° |
| 2026-05-06 15:54 | 35.04792 | 21.30134 | 40113 ft | 414 kts | 287° |
| 2026-05-06 15:54 | 35.06408 | 21.23413 | 40111 ft | 414 kts | 287° |
| 2026-05-06 15:55 | 35.08027 | 21.16658 | 40112 ft | 414 kts | 287° |
| 2026-05-06 15:55 | 35.09634 | 21.09941 | 40111 ft | 414 kts | 287° |
| 2026-05-06 15:56 | 35.11245 | 21.03183 | 40108 ft | 414 kts | 287° |
| 2026-05-06 15:56 | 35.12854 | 20.96417 | 40106 ft | 415 kts | 286° |
| 2026-05-06 15:57 | 35.14449 | 20.89693 | 40107 ft | 415 kts | 286° |
| 2026-05-06 15:57 | 35.16054 | 20.82907 | 40106 ft | 415 kts | 286° |
| 2026-05-06 15:58 | 35.17649 | 20.76148 | 40108 ft | 416 kts | 286° |
| 2026-05-06 15:58 | 35.19248 | 20.69350 | 40103 ft | 416 kts | 286° |
| 2026-05-06 15:59 | 35.20844 | 20.62545 | 40104 ft | 416 kts | 286° |
| 2026-05-06 15:59 | 35.22435 | 20.55744 | 40103 ft | 416 kts | 286° |
| 2026-05-06 16:00 | 35.24020 | 20.48950 | 40107 ft | 416 kts | 286° |
| 2026-05-06 16:00 | 35.25603 | 20.42144 | 40107 ft | 416 kts | 286° |
| 2026-05-06 16:01 | 35.27178 | 20.35358 | 40102 ft | 415 kts | 286° |
| 2026-05-06 16:01 | 35.28751 | 20.28558 | 40101 ft | 415 kts | 286° |
| 2026-05-06 16:02 | 35.30319 | 20.21761 | 40100 ft | 415 kts | 286° |
| 2026-05-06 16:02 | 35.31872 | 20.15008 | 40101 ft | 415 kts | 286° |
| 2026-05-06 16:03 | 35.33428 | 20.08223 | 40102 ft | 414 kts | 286° |
| 2026-05-06 16:03 | 35.34982 | 20.01431 | 40095 ft | 414 kts | 286° |
| 2026-05-06 16:04 | 35.36531 | 19.94640 | 40095 ft | 414 kts | 286° |
| 2026-05-06 16:04 | 35.38075 | 19.87853 | 40092 ft | 413 kts | 286° |
| 2026-05-06 16:05 | 35.39613 | 19.81071 | 40090 ft | 413 kts | 286° |
| 2026-05-06 16:05 | 35.40889 | 19.75432 | 40090 ft | 413 kts | 286° |
| 2026-05-06 16:06 | 35.42417 | 19.68658 | 40088 ft | 412 kts | 286° |
| 2026-05-06 16:06 | 35.43942 | 19.61883 | 40084 ft | 412 kts | 286° |
| 2026-05-06 16:07 | 35.45461 | 19.55111 | 40087 ft | 412 kts | 286° |
| 2026-05-06 16:07 | 35.46976 | 19.48338 | 40087 ft | 411 kts | 286° |
| 2026-05-06 16:08 | 35.48485 | 19.41570 | 40085 ft | 411 kts | 286° |
| 2026-05-06 16:08 | 35.49991 | 19.34801 | 40079 ft | 411 kts | 286° |
| 2026-05-06 16:09 | 35.51484 | 19.28069 | 40079 ft | 411 kts | 286° |
| 2026-05-06 16:09 | 35.52976 | 19.21322 | 40074 ft | 411 kts | 285° |
| 2026-05-06 16:10 | 35.54470 | 19.14546 | 40074 ft | 411 kts | 285° |
| 2026-05-06 16:10 | 35.55962 | 19.07761 | 40072 ft | 411 kts | 285° |
| 2026-05-06 16:11 | 35.57447 | 19.00984 | 40073 ft | 411 kts | 285° |
| 2026-05-06 16:11 | 35.58931 | 18.94194 | 40065 ft | 411 kts | 285° |
| 2026-05-06 16:12 | 35.60411 | 18.87404 | 40067 ft | 411 kts | 285° |
| 2026-05-06 16:12 | 35.61808 | 18.80974 | 40065 ft | 411 kts | 285° |
| 2026-05-06 16:13 | 35.63182 | 18.74633 | 40066 ft | 411 kts | 285° |
| 2026-05-06 16:13 | 35.64655 | 18.67816 | 40060 ft | 411 kts | 285° |
| 2026-05-06 16:14 | 35.66110 | 18.61062 | 40059 ft | 411 kts | 285° |
| 2026-05-06 16:14 | 35.67570 | 18.54269 | 40056 ft | 411 kts | 285° |
| 2026-05-06 16:15 | 35.69028 | 18.47458 | 40060 ft | 411 kts | 285° |
| 2026-05-06 16:15 | 35.70481 | 18.40653 | 40053 ft | 411 kts | 285° |
| 2026-05-06 16:16 | 35.71926 | 18.33865 | 40063 ft | 411 kts | 285° |
| 2026-05-06 16:16 | 35.73371 | 18.27057 | 40059 ft | 412 kts | 285° |
| 2026-05-06 16:17 | 35.74813 | 18.20242 | 40060 ft | 412 kts | 285° |
| 2026-05-06 16:17 | 35.76255 | 18.13409 | 40054 ft | 412 kts | 285° |
| 2026-05-06 16:18 | 35.77691 | 18.06580 | 40056 ft | 412 kts | 285° |
| 2026-05-06 16:18 | 35.79124 | 17.99745 | 40053 ft | 412 kts | 285° |
| 2026-05-06 16:19 | 35.80554 | 17.92904 | 40051 ft | 412 kts | 285° |
| 2026-05-06 16:19 | 35.81980 | 17.86062 | 40051 ft | 412 kts | 285° |
| 2026-05-06 16:20 | 35.83401 | 17.79220 | 40051 ft | 412 kts | 285° |
| 2026-05-06 16:20 | 35.84819 | 17.72373 | 40054 ft | 412 kts | 285° |
| 2026-05-06 16:21 | 35.86230 | 17.65540 | 40045 ft | 411 kts | 285° |
| 2026-05-06 16:21 | 35.87624 | 17.58768 | 40045 ft | 410 kts | 285° |
| 2026-05-06 16:22 | 35.89021 | 17.51961 | 40045 ft | 409 kts | 284° |
| 2026-05-06 16:22 | 35.90411 | 17.45166 | 40047 ft | 409 kts | 284° |
| 2026-05-06 16:23 | 35.91797 | 17.38368 | 40042 ft | 408 kts | 285° |
| 2026-05-06 16:23 | 35.93175 | 17.31591 | 40043 ft | 407 kts | 285° |
| 2026-05-06 16:24 | 35.94548 | 17.24813 | 40045 ft | 406 kts | 285° |
| 2026-05-06 16:24 | 35.95914 | 17.18054 | 40039 ft | 406 kts | 285° |
| 2026-05-06 16:25 | 35.97269 | 17.11323 | 40040 ft | 405 kts | 285° |
| 2026-05-06 16:25 | 35.98625 | 17.04570 | 40035 ft | 405 kts | 285° |
| 2026-05-06 16:26 | 35.99974 | 16.97829 | 40038 ft | 404 kts | 285° |
| 2026-05-06 16:26 | 36.01317 | 16.91098 | 40036 ft | 403 kts | 285° |
| 2026-05-06 16:27 | 36.02653 | 16.84380 | 40031 ft | 403 kts | 285° |
| 2026-05-06 16:27 | 36.03985 | 16.77663 | 40032 ft | 402 kts | 285° |
| 2026-05-06 16:28 | 36.05312 | 16.70948 | 40036 ft | 403 kts | 285° |
| 2026-05-06 16:28 | 36.06637 | 16.64224 | 40038 ft | 402 kts | 284° |
| 2026-05-06 16:29 | 36.07955 | 16.57516 | 40028 ft | 401 kts | 284° |
| 2026-05-06 16:29 | 36.09266 | 16.50816 | 40029 ft | 401 kts | 284° |
| 2026-05-06 16:30 | 36.10352 | 16.45252 | 40026 ft | 400 kts | 284° |
| 2026-05-06 16:30 | 36.11874 | 16.37434 | 40026 ft | 400 kts | 284° |
| 2026-05-06 16:31 | 36.13172 | 16.30740 | 40022 ft | 400 kts | 283° |
| 2026-05-06 16:31 | 36.14462 | 16.24067 | 40025 ft | 400 kts | 283° |
| 2026-05-06 16:32 | 36.15753 | 16.17362 | 40016 ft | 400 kts | 283° |
| 2026-05-06 16:32 | 36.17040 | 16.10664 | 40016 ft | 400 kts | 283° |
| 2026-05-06 16:33 | 36.18317 | 16.03994 | 40014 ft | 401 kts | 283° |
| 2026-05-06 16:34 | 36.20198 | 15.94128 | 40009 ft | 401 kts | 283° |
| 2026-05-06 16:34 | 36.21476 | 15.87395 | 40009 ft | 402 kts | 283° |
| 2026-05-06 16:35 | 36.22754 | 15.80646 | 40006 ft | 403 kts | 283° |
| 2026-05-06 16:35 | 36.24028 | 15.73889 | 40003 ft | 403 kts | 283° |
| 2026-05-06 16:36 | 36.25300 | 15.67124 | 40003 ft | 403 kts | 283° |
| 2026-05-06 16:36 | 36.26571 | 15.60342 | 39989 ft | 404 kts | 283° |
| 2026-05-06 16:37 | 36.27840 | 15.53551 | 39997 ft | 405 kts | 283° |
| 2026-05-06 16:37 | 36.29105 | 15.46751 | 39989 ft | 405 kts | 282° |
| 2026-05-06 16:38 | 36.30367 | 15.39949 | 39989 ft | 406 kts | 282° |
| 2026-05-06 16:38 | 36.31617 | 15.33192 | 39984 ft | 406 kts | 282° |
| 2026-05-06 16:39 | 36.32866 | 15.26414 | 39993 ft | 406 kts | 282° |
| 2026-05-06 16:39 | 36.34118 | 15.19595 | 39977 ft | 405 kts | 282° |
| 2026-05-06 16:40 | 36.35365 | 15.12784 | 39975 ft | 405 kts | 282° |
| 2026-05-06 16:40 | 36.36608 | 15.05967 | 39970 ft | 405 kts | 282° |
| 2026-05-06 16:41 | 36.37839 | 14.99194 | 39969 ft | 404 kts | 282° |
| 2026-05-06 16:41 | 36.39074 | 14.92379 | 39973 ft | 404 kts | 282° |
| 2026-05-06 16:42 | 36.40284 | 14.85678 | 39964 ft | 391 kts | 282° |
| 2026-05-06 16:42 | 36.41466 | 14.79110 | 39970 ft | 390 kts | 282° |
| 2026-05-06 16:43 | 36.42642 | 14.72549 | 39969 ft | 390 kts | 282° |
| 2026-05-06 16:43 | 36.43819 | 14.65963 | 39971 ft | 390 kts | 282° |
| 2026-05-06 16:44 | 36.44990 | 14.59384 | 39964 ft | 391 kts | 282° |
| 2026-05-06 16:44 | 36.46161 | 14.52788 | 39961 ft | 391 kts | 281° |
| 2026-05-06 16:45 | 36.47329 | 14.46186 | 39953 ft | 391 kts | 281° |
| 2026-05-06 16:45 | 36.48494 | 14.39579 | 39954 ft | 392 kts | 281° |
| 2026-05-06 16:46 | 36.49575 | 14.32948 | 39944 ft | 391 kts | 276° |
| 2026-05-06 16:46 | 36.49554 | 14.26245 | 39948 ft | 393 kts | 264° |
| 2026-05-06 16:47 | 36.48818 | 14.19517 | 39942 ft | 393 kts | 264° |
| 2026-05-06 16:47 | 36.48078 | 14.12791 | 39932 ft | 393 kts | 264° |
| 2026-05-06 16:48 | 36.47348 | 14.06068 | 39916 ft | 392 kts | 264° |
| 2026-05-06 16:48 | 36.46625 | 13.99358 | 39918 ft | 392 kts | 264° |
| 2026-05-06 16:49 | 36.45899 | 13.92646 | 39908 ft | 392 kts | 264° |
| 2026-05-06 16:49 | 36.45170 | 13.85940 | 39906 ft | 392 kts | 264° |
| 2026-05-06 16:50 | 36.44439 | 13.79254 | 39905 ft | 390 kts | 264° |
| 2026-05-06 16:50 | 36.43708 | 13.72596 | 39863 ft | 388 kts | 264° |
| 2026-05-06 16:51 | 36.43101 | 13.67110 | 39872 ft | 385 kts | 264° |
| 2026-05-06 16:51 | 36.42374 | 13.60545 | 39876 ft | 382 kts | 264° |
| 2026-05-06 16:52 | 36.41646 | 13.54018 | 39880 ft | 381 kts | 264° |
| 2026-05-06 16:52 | 36.40918 | 13.47513 | 39879 ft | 380 kts | 264° |
| 2026-05-06 16:53 | 36.40188 | 13.41028 | 39874 ft | 380 kts | 264° |
| 2026-05-06 16:53 | 36.39454 | 13.34542 | 39864 ft | 379 kts | 264° |
| 2026-05-06 16:54 | 36.38718 | 13.28055 | 39855 ft | 379 kts | 264° |
| 2026-05-06 16:54 | 36.38065 | 13.21561 | 39853 ft | 378 kts | 269° |
| 2026-05-06 16:55 | 36.38395 | 13.15068 | 39859 ft | 377 kts | 277° |
| 2026-05-06 16:55 | 36.39017 | 13.08595 | 39852 ft | 378 kts | 276° |
| 2026-05-06 16:56 | 36.39627 | 13.02110 | 39847 ft | 379 kts | 276° |
| 2026-05-06 16:56 | 36.40227 | 12.95600 | 39849 ft | 379 kts | 276° |
| 2026-05-06 16:57 | 36.40799 | 12.89304 | 39852 ft | 380 kts | 276° |
| 2026-05-06 16:57 | 36.41387 | 12.82790 | 39849 ft | 380 kts | 276° |
| 2026-05-06 16:58 | 36.41971 | 12.76271 | 39846 ft | 380 kts | 276° |
| 2026-05-06 16:58 | 36.42552 | 12.69748 | 39842 ft | 380 kts | 276° |
| 2026-05-06 16:59 | 36.43129 | 12.63237 | 39844 ft | 380 kts | 276° |
| 2026-05-06 16:59 | 36.43699 | 12.56755 | 39843 ft | 380 kts | 276° |
| 2026-05-06 17:00 | 36.44268 | 12.50239 | 39844 ft | 379 kts | 276° |
| 2026-05-06 17:00 | 36.44831 | 12.43760 | 39840 ft | 379 kts | 276° |
| 2026-05-06 17:00 | 36.45113 | 12.40500 | 39461 ft | 379 kts | 275° |
| 2026-05-06 17:01 | 36.45392 | 12.37261 | 38866 ft | 376 kts | 276° |
| 2026-05-06 17:01 | 36.45668 | 12.34053 | 38353 ft | 372 kts | 276° |
| 2026-05-06 17:01 | 36.45942 | 12.30844 | 37547 ft | 372 kts | 276° |
| 2026-05-06 17:01 | 36.46213 | 12.27675 | 36899 ft | 370 kts | 276° |
| 2026-05-06 17:02 | 36.46483 | 12.24502 | 36284 ft | 368 kts | 276° |
| 2026-05-06 17:02 | 36.46749 | 12.21358 | 35613 ft | 368 kts | 276° |
| 2026-05-06 17:02 | 36.47017 | 12.18192 | 34903 ft | 369 kts | 276° |
| 2026-05-06 17:02 | 36.47284 | 12.15019 | 34191 ft | 370 kts | 276° |
| 2026-05-06 17:03 | 36.47551 | 12.11839 | 33406 ft | 371 kts | 276° |
| 2026-05-06 17:03 | 36.47820 | 12.08640 | 32608 ft | 372 kts | 276° |
| 2026-05-06 17:03 | 36.48087 | 12.05434 | 31804 ft | 374 kts | 276° |
| 2026-05-06 17:03 | 36.48356 | 12.02207 | 30999 ft | 377 kts | 276° |
| 2026-05-06 17:04 | 36.48622 | 11.99000 | 30171 ft | 379 kts | 276° |
| 2026-05-06 17:04 | 36.48894 | 11.95705 | 29165 ft | 391 kts | 275° |
| 2026-05-06 17:04 | 36.49177 | 11.92264 | 28418 ft | 410 kts | 275° |
| 2026-05-06 17:04 | 36.49470 | 11.88694 | 27685 ft | 415 kts | 275° |
| 2026-05-06 17:05 | 36.49784 | 11.85105 | 26955 ft | 410 kts | 277° |
| 2026-05-06 17:05 | 36.50379 | 11.81707 | 26275 ft | 407 kts | 284° |
| 2026-05-06 17:05 | 36.51341 | 11.78383 | 25225 ft | 414 kts | 292° |
| 2026-05-06 17:05 | 36.52578 | 11.75120 | 24204 ft | 420 kts | 293° |
| 2026-05-06 17:06 | 36.53841 | 11.71822 | 23357 ft | 421 kts | 292° |
| 2026-05-06 17:06 | 36.55081 | 11.68567 | 22588 ft | 418 kts | 292° |
| 2026-05-06 17:06 | 36.56288 | 11.65368 | 22053 ft | 409 kts | 291° |
| 2026-05-06 17:06 | 36.57439 | 11.62292 | 21460 ft | 402 kts | 291° |
| 2026-05-06 17:07 | 36.58607 | 11.59152 | 20762 ft | 399 kts | 290° |
| 2026-05-06 17:07 | 36.59768 | 11.56027 | 20066 ft | 396 kts | 290° |
| 2026-05-06 17:07 | 36.60921 | 11.52922 | 19413 ft | 393 kts | 289° |
| 2026-05-06 17:07 | 36.62004 | 11.49831 | 18781 ft | 386 kts | 284° |
| 2026-05-06 17:08 | 36.62708 | 11.46656 | 18188 ft | 377 kts | 277° |
| 2026-05-06 17:08 | 36.63285 | 11.43480 | 17492 ft | 374 kts | 277° |
| 2026-05-06 17:08 | 36.63852 | 11.40324 | 16734 ft | 373 kts | 277° |
| 2026-05-06 17:08 | 36.64421 | 11.37174 | 15980 ft | 371 kts | 276° |
| 2026-05-06 17:09 | 36.64989 | 11.34081 | 15153 ft | 363 kts | 276° |
| 2026-05-06 17:09 | 36.65552 | 11.31036 | 14195 ft | 360 kts | 276° |
| 2026-05-06 17:09 | 36.66110 | 11.28014 | 13232 ft | 356 kts | 276° |
| 2026-05-06 17:09 | 36.66663 | 11.25024 | 12224 ft | 354 kts | 277° |
| 2026-05-06 17:10 | 36.67215 | 11.22034 | 11255 ft | 353 kts | 277° |
| 2026-05-06 17:10 | 36.67753 | 11.19125 | 10742 ft | 341 kts | 277° |
| 2026-05-06 17:10 | 36.68280 | 11.16296 | 10508 ft | 323 kts | 277° |
| 2026-05-06 17:10 | 36.68774 | 11.13624 | 10225 ft | 314 kts | 277° |
| 2026-05-06 17:11 | 36.69256 | 11.10996 | 10010 ft | 308 kts | 277° |
| 2026-05-06 17:11 | 36.69730 | 11.08405 | 9810 ft | 306 kts | 276° |
| 2026-05-06 17:11 | 36.70204 | 11.05815 | 9562 ft | 308 kts | 277° |
| 2026-05-06 17:11 | 36.70667 | 11.03240 | 9313 ft | 308 kts | 275° |
| 2026-05-06 17:12 | 36.70878 | 11.00566 | 9060 ft | 304 kts | 266° |
| 2026-05-06 17:12 | 36.70892 | 10.97969 | 8814 ft | 304 kts | 264° |
| 2026-05-06 17:12 | 36.70867 | 10.95337 | 8567 ft | 304 kts | 264° |
| 2026-05-06 17:12 | 36.70844 | 10.92711 | 8319 ft | 304 kts | 264° |
| 2026-05-06 17:13 | 36.70825 | 10.90088 | 8061 ft | 299 kts | 264° |
| 2026-05-06 17:13 | 36.70808 | 10.87509 | 7781 ft | 290 kts | 264° |
| 2026-05-06 17:13 | 36.70791 | 10.85043 | 7343 ft | 286 kts | 264° |
| 2026-05-06 17:13 | 36.70763 | 10.82568 | 6867 ft | 285 kts | 264° |
| 2026-05-06 17:14 | 36.70719 | 10.80101 | 6393 ft | 284 kts | 264° |
| 2026-05-06 17:14 | 36.70658 | 10.77639 | 5907 ft | 288 kts | 264° |
| 2026-05-06 17:14 | 36.70582 | 10.75141 | 5610 ft | 287 kts | 264° |
| 2026-05-06 17:14 | 36.70499 | 10.72672 | 5361 ft | 284 kts | 264° |
| 2026-05-06 17:15 | 36.70409 | 10.70234 | 5112 ft | 281 kts | 264° |
| 2026-05-06 17:15 | 36.70324 | 10.67805 | 4879 ft | 279 kts | 269° |
| 2026-05-06 17:15 | 36.70798 | 10.65490 | 4665 ft | 277 kts | 298° |
| 2026-05-06 17:15 | 36.71691 | 10.63396 | 4496 ft | 271 kts | 295° |
| 2026-05-06 17:16 | 36.72439 | 10.61255 | 4304 ft | 267 kts | 292° |
| 2026-05-06 17:16 | 36.73132 | 10.59121 | 4104 ft | 263 kts | 291° |
| 2026-05-06 17:16 | 36.73811 | 10.57023 | 3916 ft | 259 kts | 292° |
| 2026-05-06 17:16 | 36.74481 | 10.54965 | 3739 ft | 254 kts | 293° |
| 2026-05-06 17:17 | 36.75138 | 10.52960 | 3615 ft | 244 kts | 293° |
| 2026-05-06 17:17 | 36.75761 | 10.51065 | 3481 ft | 232 kts | 293° |
| 2026-05-06 17:17 | 36.76357 | 10.49250 | 3350 ft | 222 kts | 294° |
| 2026-05-06 17:17 | 36.76929 | 10.47509 | 3203 ft | 213 kts | 294° |
| 2026-05-06 17:18 | 36.77478 | 10.45844 | 3058 ft | 206 kts | 293° |
| 2026-05-06 17:18 | 36.78021 | 10.44194 | 2935 ft | 206 kts | 293° |
| 2026-05-06 17:18 | 36.78555 | 10.42569 | 2834 ft | 198 kts | 293° |
| 2026-05-06 17:18 | 36.79065 | 10.41018 | 2730 ft | 188 kts | 293° |
| 2026-05-06 17:19 | 36.79549 | 10.39546 | 2531 ft | 184 kts | 293° |
| 2026-05-06 17:19 | 36.80036 | 10.38076 | 2318 ft | 181 kts | 293° |
| 2026-05-06 17:19 | 36.80511 | 10.36632 | 2082 ft | 179 kts | 294° |
| 2026-05-06 17:19 | 36.80986 | 10.35192 | 1829 ft | 178 kts | 295° |
| 2026-05-06 17:20 | 36.81447 | 10.33786 | 1619 ft | 177 kts | 294° |
| 2026-05-06 17:20 | 36.81914 | 10.32377 | 1378 ft | 172 kts | 293° |
| 2026-05-06 17:20 | 36.82354 | 10.31045 | 1162 ft | 158 kts | 294° |
| 2026-05-06 17:20 | 36.82745 | 10.29859 | 937 ft | 147 kts | 296° |
| 2026-05-06 17:21 | 36.83131 | 10.28673 | 737 ft | 150 kts | 296° |
| 2026-05-06 17:21 | 36.83521 | 10.27462 | 549 ft | 150 kts | 296° |
| 2026-05-06 17:21 | 36.83919 | 10.26285 | 380 ft | 148 kts | 297° |
| 2026-05-06 17:21 | 36.84314 | 10.25096 | 172 ft | 149 kts | 298° |
| 2026-05-06 17:22 | 36.84707 | 10.23916 | 33 ft | 141 kts | 297° |
| 2026-05-06 17:22 | 36.85035 | 10.22946 | 31 ft | 103 kts | 293° |
| 2026-05-06 17:22 | 36.85236 | 10.22339 | 33 ft | 42 kts | 292° |
| 2026-05-06 17:22 | 36.85253 | 10.22200 | 31 ft | 11 kts | 199° |
| 2026-05-06 17:23 | 36.85176 | 10.22169 | 30 ft | 13 kts | 202° |
| 2026-05-06 17:23 | 36.85095 | 10.22137 | 30 ft | 11 kts | 171° |
| 2026-05-06 17:23 | 36.85055 | 10.22217 | 30 ft | 11 kts | 111° |
| 2026-05-06 17:23 | 36.85026 | 10.22303 | 28 ft | 11 kts | 112° |
| 2026-05-06 17:24 | 36.84994 | 10.22382 | 30 ft | 10 kts | 143° |
| 2026-05-06 17:24 | 36.84922 | 10.22374 | 28 ft | 11 kts | 194° |
| 2026-05-06 17:24 | 36.84865 | 10.22324 | 29 ft | 11 kts | 276° |
| 2026-05-06 17:24 | 36.84883 | 10.22230 | 29 ft | 11 kts | 282° |
| 2026-05-06 17:25 | 36.84897 | 10.22149 | 29 ft | 9 kts | 277° |
| 2026-05-06 17:25 | 36.84906 | 10.22075 | 29 ft | 9 kts | 284° |
| 2026-05-06 17:25 | 36.84922 | 10.21998 | 29 ft | 9 kts | 285° |
| 2026-05-06 17:25 | 36.84966 | 10.21956 | 29 ft | 5 kts | 331° |
| 2026-05-06 17:26 | 36.84978 | 10.21946 | 29 ft | 2 kts | 327° |
| 2026-05-06 17:26 | 36.84981 | 10.21944 | 29 ft | 0 kts | 327° |